Terri L. Brusco — WDC3034 — position and weather

sailwx.info

Track history (hours):
 
Tides and Currents Weather Stations Pressure Air Temp Water Temp Dewpoint Dewpoint Depression Visibility Wind Speed Wind Dir Waves Ship Positions

Terri L. Brusco

Owner: Brusco Tug & Barge, Inc., Longview, WA. More information available from US FCC via Universal Licensing System and Coast Guard Vessel Documentation Center.

Last reported at 2014-Nov-22 11:33 UTC. Time now 2014-Nov-22 11:47 UTC.
Position N 37°38' W 122°18'.

Length 21 m; draft 3 m.

Type: Tug. MMSI: 367001830.

Date/timePositionNaut miles runAvg speedWind from/ knotsBaromVisibWave heightAir tempDewpointWater temp
2014-Nov-22 11:33N 37°38' W 122°18'8 7.9
2014-Nov-22 10:32N 37°32' W 122°12'0 0.1
2014-Nov-22 09:33N 37°32' W 122°12'9 8.7
2014-Nov-22 08:33N 37°39' W 122°18'10 9.6
2014-Nov-22 07:33N 37°48' W 122°23'8 8.2
2014-Nov-22 06:33N 37°55' W 122°27'6 5.5
2014-Nov-22 05:33N 38°01' W 122°25'7 7.5
2014-Nov-22 04:33N 37°53' W 122°25'6 6.5
2014-Nov-22 03:33N 37°47' W 122°23'7 6.6
2014-Nov-22 02:33N 37°41' W 122°20'8 7.9
2014-Nov-22 01:33N 37°34' W 122°14'3 2.5
2014-Nov-22 00:33N 37°33' W 122°12'7 6.7
2014-Nov-21 23:33N 37°37' W 122°17'7 6.8
2014-Nov-21 22:33N 37°44' W 122°21'6 6.4
2014-Nov-21 21:33N 37°49' W 122°24'9 8.7
2014-Nov-21 20:32N 37°58' W 122°26'2 1.7
2014-Nov-21 19:33N 37°56' W 122°27'8 7.6
2014-Nov-21 18:33N 37°49' W 122°24'7 6.8
2014-Nov-21 17:33N 37°43' W 122°21'6 6.4
2014-Nov-21 16:33N 37°37' W 122°17'6 5.8
2014-Nov-21 15:33N 37°33' W 122°12'3 2.8
2014-Nov-21 14:32N 37°31' W 122°13'0 0.0
2014-Nov-21 13:33N 37°31' W 122°13'0 0.0
2014-Nov-21 12:28N 37°31' W 122°13'0 0.0
2014-Nov-21 10:32N 37°31' W 122°13'0 0.0
2014-Nov-21 09:27N 37°31' W 122°13'0 0.0
2014-Nov-21 08:32N 37°31' W 122°13'3 2.8
2014-Nov-21 07:33N 37°33' W 122°11'0 0.1
2014-Nov-21 06:33N 37°33' W 122°11'0 0.0
2014-Nov-21 05:33N 37°33' W 122°11'0 0.0
2014-Nov-21 04:33N 37°33' W 122°11'1 0.8
2014-Nov-21 03:33N 37°34' W 122°12'10 9.7
2014-Nov-21 02:33N 37°41' W 122°20'9 9.3
2014-Nov-21 01:33N 37°49' W 122°25'2 2.1
2014-Nov-21 00:33N 37°48' W 122°23'9 8.7
2014-Nov-20 23:33N 37°40' W 122°20'9 9.1
2014-Nov-20 22:33N 37°33' W 122°12'3 2.8
2014-Nov-20 21:33N 37°31' W 122°13'0 0.0
2014-Nov-20 20:32N 37°31' W 122°13'3 2.6
2014-Nov-20 19:32N 37°33' W 122°12'8 8.3
2014-Nov-20 18:33N 37°39' W 122°19'9 8.8
2014-Nov-20 17:33N 37°47' W 122°23'1 0.5
2014-Nov-20 16:33N 37°48' W 122°23'6 5.9
2014-Nov-20 15:33N 37°42' W 122°20'6 6.1
2014-Nov-20 14:33N 37°37' W 122°17'6 5.9
2014-Nov-20 13:31N 37°32' W 122°12'1 1.1
2014-Nov-20 12:33N 37°33' W 122°12'3 2.8
2014-Nov-20 11:33N 37°31' W 122°13'0 0.0
2014-Nov-20 10:33N 37°31' W 122°13'0 0.0
2014-Nov-20 09:33N 37°31' W 122°13'0 0.0
2014-Nov-20 08:33N 37°31' W 122°13'2 2.0
2014-Nov-20 07:33N 37°32' W 122°12'9 8.6
2014-Nov-20 06:33N 37°39' W 122°19'9 9.3
2014-Nov-20 05:33N 37°47' W 122°23'1 1.0
2014-Nov-20 04:33N 37°48' W 122°23'6 5.7
2014-Nov-20 03:33N 37°43' W 122°21'6 5.9
2014-Nov-20 02:33N 37°38' W 122°18'7 6.6
2014-Nov-20 01:33N 37°33' W 122°12'2 1.8
2014-Nov-20 00:31N 37°31' W 122°12'1 0.8
2014-Nov-19 23:33N 37°31' W 122°13'0 0.0
2014-Nov-19 22:29N 37°31' W 122°13'0 0.0
2014-Nov-19 21:32N 37°31' W 122°13'0 0.0
2014-Nov-19 19:32N 37°31' W 122°13'1 0.7
2014-Nov-19 18:33N 37°31' W 122°12'0 0.1
2014-Nov-19 17:32N 37°31' W 122°12'1 0.3
2014-Nov-19 15:12N 37°31' W 122°13'0 0.0
2014-Nov-19 14:32N 37°31' W 122°13'0 0.0
2014-Nov-19 13:33N 37°31' W 122°13'0 0.0
2014-Nov-19 11:33N 37°31' W 122°13'2 1.9
2014-Nov-19 10:33N 37°32' W 122°12'8 8.0
2014-Nov-19 09:33N 37°38' W 122°18'8 8.3
2014-Nov-19 08:33N 37°46' W 122°22'3 2.5
2014-Nov-19 07:33N 37°48' W 122°23'8 8.2
2014-Nov-19 06:33N 37°41' W 122°20'7 7.1
2014-Nov-19 05:33N 37°35' W 122°15'4 4.2
2014-Nov-19 04:33N 37°31' W 122°13'0 0.1
2014-Nov-19 03:31N 37°31' W 122°12'0 0.5
2014-Nov-19 02:33N 37°31' W 122°13'0 0.1
2014-Nov-19 01:20N 37°31' W 122°13'4 5.0
2014-Nov-19 00:33N 37°34' W 122°14'8 7.8
2014-Nov-18 23:33N 37°41' W 122°20'8 7.8
2014-Nov-18 22:33N 37°48' W 122°23'2 1.6
2014-Nov-18 21:33N 37°47' W 122°22'8 8.5
2014-Nov-18 20:33N 37°39' W 122°19'7 7.4
2014-Nov-18 19:33N 37°33' W 122°12'2 1.7
2014-Nov-18 18:32N 37°32' W 122°12'1 0.4
2014-Nov-18 15:23N 37°31' W 122°13'0 0.0
2014-Nov-18 12:05N 37°31' W 122°13'3 4.7
2014-Nov-18 11:33N 37°33' W 122°12'8 8.0
2014-Nov-18 10:33N 37°39' W 122°19'8 8.1
2014-Nov-18 09:33N 37°46' W 122°22'2 1.9
2014-Nov-18 08:33N 37°48' W 122°23'8 8.4
2014-Nov-18 07:33N 37°40' W 122°20'8 7.6
2014-Nov-18 06:33N 37°34' W 122°14'4 1.8
2014-Nov-18 04:28N 37°31' W 122°13'6 6.5
2014-Nov-18 03:33N 37°36' W 122°16'10 9.8
2014-Nov-18 02:33N 37°45' W 122°22'5 4.5
2014-Nov-18 01:33N 37°49' W 122°24'6 6.4
2014-Nov-18 00:33N 37°43' W 122°21'7 7.4
2014-Nov-17 23:33N 37°36' W 122°17'6 5.9
2014-Nov-17 22:29N 37°31' W 122°12'0 0.5
2014-Nov-17 21:31N 37°31' W 122°13'0 0.0
2014-Nov-17 20:17N 37°31' W 122°13'0 0.0
2014-Nov-17 19:22N 37°31' W 122°13'0 0.2
2014-Nov-17 18:20N 37°30' W 122°13'0 0.0
2014-Nov-17 17:09N 37°30' W 122°13'1 1.9
2014-Nov-17 16:33N 37°31' W 122°12'6 6.1
2014-Nov-17 15:33N 37°36' W 122°17'1010.3
2014-Nov-17 14:33N 37°46' W 122°22'2 2.0
2014-Nov-17 13:33N 37°48' W 122°23'6 6.3
2014-Nov-17 12:33N 37°42' W 122°20'7 6.9
2014-Nov-17 11:29N 37°35' W 122°16'1 0.4
2014-Nov-17 09:29N 37°35' W 122°15'7 7.8
2014-Nov-17 08:33N 37°41' W 122°20'8 7.7
2014-Nov-17 07:33N 37°48' W 122°23'1 1.2
2014-Nov-17 06:33N 37°47' W 122°23'8 8.1
2014-Nov-17 05:33N 37°39' W 122°19'10 1.2
2014-Nov-16 21:09N 37°31' W 122°13'3 5.2
2014-Nov-16 20:33N 37°34' W 122°13'7 7.4
2014-Nov-16 19:33N 37°39' W 122°19'7 7.4
2014-Nov-16 18:33N 37°46' W 122°22'4 4.0
2014-Nov-16 17:33N 37°49' W 122°25'8 7.6
2014-Nov-16 16:33N 37°42' W 122°21'7 7.1
2014-Nov-16 15:33N 37°36' W 122°16'6 5.8
2014-Nov-16 14:33N 37°31' W 122°12'1 1.0
2014-Nov-16 13:33N 37°31' W 122°13'2 1.0
2014-Nov-16 11:33N 37°32' W 122°12'1 0.8
2014-Nov-16 10:33N 37°33' W 122°11'1 0.7
2014-Nov-16 09:33N 37°34' W 122°12'9 8.8
2014-Nov-16 08:33N 37°40' W 122°19'9 8.8
2014-Nov-16 07:33N 37°48' W 122°24'2 2.3
2014-Nov-16 06:33N 37°46' W 122°22'9 8.6
2014-Nov-16 05:33N 37°38' W 122°18'8 7.9
2014-Nov-16 04:33N 37°32' W 122°12'2 1.4
2014-Nov-16 03:05N 37°31' W 122°13'0 0.0
2014-Nov-16 02:30N 37°31' W 122°13'0 0.0
2014-Nov-16 01:32N 37°31' W 122°13'0 0.0
2014-Nov-16 00:31N 37°31' W 122°13'8 1.5
2014-Nov-15 19:33N 37°37' W 122°17'8 8.4
2014-Nov-15 18:33N 37°45' W 122°22'6 5.7
2014-Nov-15 17:33N 37°49' W 122°26'7 6.8
2014-Nov-15 16:33N 37°44' W 122°21'8 7.7
2014-Nov-15 15:33N 37°37' W 122°17'6 6.5
2014-Nov-15 14:33N 37°32' W 122°12'1 0.9
2014-Nov-15 13:33N 37°31' W 122°13'6 6.0
2014-Nov-15 12:33N 37°36' W 122°16'10 9.6
2014-Nov-15 11:33N 37°45' W 122°22'4 4.3
2014-Nov-15 10:33N 37°49' W 122°24'6 6.0
2014-Nov-15 09:33N 37°43' W 122°21'7 6.7
2014-Nov-15 08:33N 37°37' W 122°17'7 6.8
2014-Nov-15 07:33N 37°32' W 122°12'1 1.3
2014-Nov-15 06:33N 37°33' W 122°12'3 0.6
2014-Nov-15 01:26N 37°31' W 122°13'1 0.7
2014-Nov-14 23:31N 37°32' W 122°12'2 1.6
2014-Nov-14 22:33N 37°33' W 122°11'7 6.6
2014-Nov-14 21:33N 37°38' W 122°18'10 9.7
2014-Nov-14 20:33N 37°46' W 122°22'2 1.8
2014-Nov-14 19:33N 37°48' W 122°23'8 8.2
2014-Nov-14 18:33N 37°41' W 122°19'8 7.9
2014-Nov-14 17:33N 37°34' W 122°13'3 2.8
2014-Nov-14 16:33N 37°31' W 122°12'2 2.1
2014-Nov-14 15:33N 37°33' W 122°12'8 8.4
2014-Nov-14 14:33N 37°40' W 122°19'8 3.9
2014-Nov-14 12:33N 37°47' W 122°23'6 6.2
2014-Nov-14 11:33N 37°41' W 122°20'6 6.1
2014-Nov-14 10:33N 37°36' W 122°16'5 5.2
2014-Nov-14 09:31N 37°32' W 122°12'2 1.6
2014-Nov-14 08:33N 37°33' W 122°12'0 0.1
2014-Nov-14 07:33N 37°33' W 122°12'4 4.0
2014-Nov-14 06:33N 37°35' W 122°16'9 8.8
2014-Nov-14 05:33N 37°43' W 122°21'7 7.3
2014-Nov-14 04:33N 37°49' W 122°26'6 5.9
2014-Nov-14 03:33N 37°45' W 122°21'8 8.4
2014-Nov-14 02:33N 37°37' W 122°17'7 6.6
2014-Nov-14 01:32N 37°31' W 122°12'3 2.6
2014-Nov-14 00:33N 37°34' W 122°13'6 5.9
2014-Nov-13 23:33N 37°38' W 122°18'9 9.3
2014-Nov-13 22:33N 37°47' W 122°22'1 1.5
2014-Nov-13 21:33N 37°48' W 122°23'6 6.3
2014-Nov-13 20:33N 37°42' W 122°20'7 6.5
2014-Nov-13 19:33N 37°36' W 122°17'6 6.0
2014-Nov-13 18:33N 37°32' W 122°12'2 2.3
2014-Nov-13 17:33N 37°34' W 122°13'8 8.4
2014-Nov-13 16:33N 37°41' W 122°19'8 8.4
2014-Nov-13 15:33N 37°48' W 122°23'1 1.2
2014-Nov-13 14:33N 37°47' W 122°23'8 7.6
2014-Nov-13 13:33N 37°40' W 122°19'7 6.6
2014-Nov-13 12:33N 37°35' W 122°14'3 2.6
2014-Nov-13 11:33N 37°33' W 122°12'2 1.8
2014-Nov-13 10:33N 37°34' W 122°13'9 8.7
2014-Nov-13 09:33N 37°41' W 122°20'9 9.1
2014-Nov-13 08:33N 37°49' W 122°26'4 4.1
2014-Nov-13 07:33N 37°46' W 122°22'7 6.8
2014-Nov-13 06:33N 37°40' W 122°19'7 7.3
2014-Nov-13 05:33N 37°34' W 122°13'4 3.8
2014-Nov-13 04:33N 37°30' W 122°13'0 0.0
2014-Nov-13 03:33N 37°30' W 122°13'0 0.0
2014-Nov-13 02:33N 37°30' W 122°13'1 0.9
2014-Nov-13 01:31N 37°31' W 122°12'1 0.7
2014-Nov-13 00:09N 37°30' W 122°13'0 0.0
2014-Nov-12 23:13N 37°30' W 122°13'0 0.0
2014-Nov-12 22:32N 37°30' W 122°13'3 3.3
2014-Nov-12 21:33N 37°34' W 122°12'9 8.5
2014-Nov-12 20:33N 37°40' W 122°19'9 9.5
2014-Nov-12 19:33N 37°49' W 122°24'2 2.4
2014-Nov-12 18:33N 37°47' W 122°22'7 7.3
2014-Nov-12 17:33N 37°40' W 122°19'8 7.5
2014-Nov-12 16:33N 37°34' W 122°13'4 3.7
2014-Nov-12 15:33N 37°30' W 122°13'0 0.0
2014-Nov-12 14:33N 37°30' W 122°13'0 0.0
2014-Nov-12 13:32N 37°30' W 122°13'0 0.0
2014-Nov-12 12:32N 37°30' W 122°13'  
Track history (hours):
 
Tides and Currents Weather Stations Pressure Air Temp Water Temp Dewpoint Dewpoint Depression Visibility Wind Speed Wind Dir Waves Ship Positions

Terri L. Brusco

Owner: Brusco Tug & Barge, Inc., Longview, WA. More information available from US FCC via Universal Licensing System and Coast Guard Vessel Documentation Center.

Last reported at 2014-Nov-22 11:33 UTC. Time now 2014-Nov-22 11:47 UTC.
Position N 37°38' W 122°18'.

Length 21 m; draft 3 m.

Type: Tug. MMSI: 367001830.

Date/timePositionNaut miles runAvg speedWind from/ knotsBaromVisibWave heightAir tempDewpointWater temp
2014-Nov-22 11:33N 37°38' W 122°18'8 7.9
2014-Nov-22 10:32N 37°32' W 122°12'0 0.1
2014-Nov-22 09:33N 37°32' W 122°12'9 8.7
2014-Nov-22 08:33N 37°39' W 122°18'10 9.6
2014-Nov-22 07:33N 37°48' W 122°23'8 8.2
2014-Nov-22 06:33N 37°55' W 122°27'6 5.5
2014-Nov-22 05:33N 38°01' W 122°25'7 7.5
2014-Nov-22 04:33N 37°53' W 122°25'6 6.5
2014-Nov-22 03:33N 37°47' W 122°23'7 6.6
2014-Nov-22 02:33N 37°41' W 122°20'8 7.9
2014-Nov-22 01:33N 37°34' W 122°14'3 2.5
2014-Nov-22 00:33N 37°33' W 122°12'7 6.7
2014-Nov-21 23:33N 37°37' W 122°17'7 6.8
2014-Nov-21 22:33N 37°44' W 122°21'6 6.4
2014-Nov-21 21:33N 37°49' W 122°24'9 8.7
2014-Nov-21 20:32N 37°58' W 122°26'2 1.7
2014-Nov-21 19:33N 37°56' W 122°27'8 7.6
2014-Nov-21 18:33N 37°49' W 122°24'7 6.8
2014-Nov-21 17:33N 37°43' W 122°21'6 6.4
2014-Nov-21 16:33N 37°37' W 122°17'6 5.8
2014-Nov-21 15:33N 37°33' W 122°12'3 2.8
2014-Nov-21 14:32N 37°31' W 122°13'0 0.0
2014-Nov-21 13:33N 37°31' W 122°13'0 0.0
2014-Nov-21 12:28N 37°31' W 122°13'0 0.0
2014-Nov-21 10:32N 37°31' W 122°13'0 0.0
2014-Nov-21 09:27N 37°31' W 122°13'0 0.0
2014-Nov-21 08:32N 37°31' W 122°13'3 2.8
2014-Nov-21 07:33N 37°33' W 122°11'0 0.1
2014-Nov-21 06:33N 37°33' W 122°11'0 0.0
2014-Nov-21 05:33N 37°33' W 122°11'0 0.0
2014-Nov-21 04:33N 37°33' W 122°11'1 0.8
2014-Nov-21 03:33N 37°34' W 122°12'10 9.7
2014-Nov-21 02:33N 37°41' W 122°20'9 9.3
2014-Nov-21 01:33N 37°49' W 122°25'2 2.1
2014-Nov-21 00:33N 37°48' W 122°23'9 8.7
2014-Nov-20 23:33N 37°40' W 122°20'9 9.1
2014-Nov-20 22:33N 37°33' W 122°12'3 2.8
2014-Nov-20 21:33N 37°31' W 122°13'0 0.0
2014-Nov-20 20:32N 37°31' W 122°13'3 2.6
2014-Nov-20 19:32N 37°33' W 122°12'8 8.3
2014-Nov-20 18:33N 37°39' W 122°19'9 8.8
2014-Nov-20 17:33N 37°47' W 122°23'1 0.5
2014-Nov-20 16:33N 37°48' W 122°23'6 5.9
2014-Nov-20 15:33N 37°42' W 122°20'6 6.1
2014-Nov-20 14:33N 37°37' W 122°17'6 5.9
2014-Nov-20 13:31N 37°32' W 122°12'1 1.1
2014-Nov-20 12:33N 37°33' W 122°12'3 2.8
2014-Nov-20 11:33N 37°31' W 122°13'0 0.0
2014-Nov-20 10:33N 37°31' W 122°13'0 0.0
2014-Nov-20 09:33N 37°31' W 122°13'0 0.0
2014-Nov-20 08:33N 37°31' W 122°13'2 2.0
2014-Nov-20 07:33N 37°32' W 122°12'9 8.6
2014-Nov-20 06:33N 37°39' W 122°19'9 9.3
2014-Nov-20 05:33N 37°47' W 122°23'1 1.0
2014-Nov-20 04:33N 37°48' W 122°23'6 5.7
2014-Nov-20 03:33N 37°43' W 122°21'6 5.9
2014-Nov-20 02:33N 37°38' W 122°18'7 6.6
2014-Nov-20 01:33N 37°33' W 122°12'2 1.8
2014-Nov-20 00:31N 37°31' W 122°12'1 0.8
2014-Nov-19 23:33N 37°31' W 122°13'0 0.0
2014-Nov-19 22:29N 37°31' W 122°13'0 0.0
2014-Nov-19 21:32N 37°31' W 122°13'0 0.0
2014-Nov-19 19:32N 37°31' W 122°13'1 0.7
2014-Nov-19 18:33N 37°31' W 122°12'0 0.1
2014-Nov-19 17:32N 37°31' W 122°12'1 0.3
2014-Nov-19 15:12N 37°31' W 122°13'0 0.0
2014-Nov-19 14:32N 37°31' W 122°13'0 0.0
2014-Nov-19 13:33N 37°31' W 122°13'0 0.0
2014-Nov-19 11:33N 37°31' W 122°13'2 1.9
2014-Nov-19 10:33N 37°32' W 122°12'8 8.0
2014-Nov-19 09:33N 37°38' W 122°18'8 8.3
2014-Nov-19 08:33N 37°46' W 122°22'3 2.5
2014-Nov-19 07:33N 37°48' W 122°23'8 8.2
2014-Nov-19 06:33N 37°41' W 122°20'7 7.1
2014-Nov-19 05:33N 37°35' W 122°15'4 4.2
2014-Nov-19 04:33N 37°31' W 122°13'0 0.1
2014-Nov-19 03:31N 37°31' W 122°12'0 0.5
2014-Nov-19 02:33N 37°31' W 122°13'0 0.1
2014-Nov-19 01:20N 37°31' W 122°13'4 5.0
2014-Nov-19 00:33N 37°34' W 122°14'8 7.8
2014-Nov-18 23:33N 37°41' W 122°20'8 7.8
2014-Nov-18 22:33N 37°48' W 122°23'2 1.6
2014-Nov-18 21:33N 37°47' W 122°22'8 8.5
2014-Nov-18 20:33N 37°39' W 122°19'7 7.4
2014-Nov-18 19:33N 37°33' W 122°12'2 1.7
2014-Nov-18 18:32N 37°32' W 122°12'1 0.4
2014-Nov-18 15:23N 37°31' W 122°13'0 0.0
2014-Nov-18 12:05N 37°31' W 122°13'3 4.7
2014-Nov-18 11:33N 37°33' W 122°12'8 8.0
2014-Nov-18 10:33N 37°39' W 122°19'8 8.1
2014-Nov-18 09:33N 37°46' W 122°22'2 1.9
2014-Nov-18 08:33N 37°48' W 122°23'8 8.4
2014-Nov-18 07:33N 37°40' W 122°20'8 7.6
2014-Nov-18 06:33N 37°34' W 122°14'4 1.8
2014-Nov-18 04:28N 37°31' W 122°13'6 6.5
2014-Nov-18 03:33N 37°36' W 122°16'10 9.8
2014-Nov-18 02:33N 37°45' W 122°22'5 4.5
2014-Nov-18 01:33N 37°49' W 122°24'6 6.4
2014-Nov-18 00:33N 37°43' W 122°21'7 7.4
2014-Nov-17 23:33N 37°36' W 122°17'6 5.9
2014-Nov-17 22:29N 37°31' W 122°12'0 0.5
2014-Nov-17 21:31N 37°31' W 122°13'0 0.0
2014-Nov-17 20:17N 37°31' W 122°13'0 0.0
2014-Nov-17 19:22N 37°31' W 122°13'0 0.2
2014-Nov-17 18:20N 37°30' W 122°13'0 0.0
2014-Nov-17 17:09N 37°30' W 122°13'1 1.9
2014-Nov-17 16:33N 37°31' W 122°12'6 6.1
2014-Nov-17 15:33N 37°36' W 122°17'1010.3
2014-Nov-17 14:33N 37°46' W 122°22'2 2.0
2014-Nov-17 13:33N 37°48' W 122°23'6 6.3
2014-Nov-17 12:33N 37°42' W 122°20'7 6.9
2014-Nov-17 11:29N 37°35' W 122°16'1 0.4
2014-Nov-17 09:29N 37°35' W 122°15'7 7.8
2014-Nov-17 08:33N 37°41' W 122°20'8 7.7
2014-Nov-17 07:33N 37°48' W 122°23'1 1.2
2014-Nov-17 06:33N 37°47' W 122°23'8 8.1
2014-Nov-17 05:33N 37°39' W 122°19'10 1.2
2014-Nov-16 21:09N 37°31' W 122°13'3 5.2
2014-Nov-16 20:33N 37°34' W 122°13'7 7.4
2014-Nov-16 19:33N 37°39' W 122°19'7 7.4
2014-Nov-16 18:33N 37°46' W 122°22'4 4.0
2014-Nov-16 17:33N 37°49' W 122°25'8 7.6
2014-Nov-16 16:33N 37°42' W 122°21'7 7.1
2014-Nov-16 15:33N 37°36' W 122°16'6 5.8
2014-Nov-16 14:33N 37°31' W 122°12'1 1.0
2014-Nov-16 13:33N 37°31' W 122°13'2 1.0
2014-Nov-16 11:33N 37°32' W 122°12'1 0.8
2014-Nov-16 10:33N 37°33' W 122°11'1 0.7
2014-Nov-16 09:33N 37°34' W 122°12'9 8.8
2014-Nov-16 08:33N 37°40' W 122°19'9 8.8
2014-Nov-16 07:33N 37°48' W 122°24'2 2.3
2014-Nov-16 06:33N 37°46' W 122°22'9 8.6
2014-Nov-16 05:33N 37°38' W 122°18'8 7.9
2014-Nov-16 04:33N 37°32' W 122°12'2 1.4
2014-Nov-16 03:05N 37°31' W 122°13'0 0.0
2014-Nov-16 02:30N 37°31' W 122°13'0 0.0
2014-Nov-16 01:32N 37°31' W 122°13'0 0.0
2014-Nov-16 00:31N 37°31' W 122°13'8 1.5
2014-Nov-15 19:33N 37°37' W 122°17'8 8.4
2014-Nov-15 18:33N 37°45' W 122°22'6 5.7
2014-Nov-15 17:33N 37°49' W 122°26'7 6.8
2014-Nov-15 16:33N 37°44' W 122°21'8 7.7
2014-Nov-15 15:33N 37°37' W 122°17'6 6.5
2014-Nov-15 14:33N 37°32' W 122°12'1 0.9
2014-Nov-15 13:33N 37°31' W 122°13'6 6.0
2014-Nov-15 12:33N 37°36' W 122°16'10 9.6
2014-Nov-15 11:33N 37°45' W 122°22'4 4.3
2014-Nov-15 10:33N 37°49' W 122°24'6 6.0
2014-Nov-15 09:33N 37°43' W 122°21'7 6.7
2014-Nov-15 08:33N 37°37' W 122°17'7 6.8
2014-Nov-15 07:33N 37°32' W 122°12'1 1.3
2014-Nov-15 06:33N 37°33' W 122°12'3 0.6
2014-Nov-15 01:26N 37°31' W 122°13'1 0.7
2014-Nov-14 23:31N 37°32' W 122°12'2 1.6
2014-Nov-14 22:33N 37°33' W 122°11'7 6.6
2014-Nov-14 21:33N 37°38' W 122°18'10 9.7
2014-Nov-14 20:33N 37°46' W 122°22'2 1.8
2014-Nov-14 19:33N 37°48' W 122°23'8 8.2
2014-Nov-14 18:33N 37°41' W 122°19'8 7.9
2014-Nov-14 17:33N 37°34' W 122°13'3 2.8
2014-Nov-14 16:33N 37°31' W 122°12'2 2.1
2014-Nov-14 15:33N 37°33' W 122°12'8 8.4
2014-Nov-14 14:33N 37°40' W 122°19'8 3.9
2014-Nov-14 12:33N 37°47' W 122°23'6 6.2
2014-Nov-14 11:33N 37°41' W 122°20'6 6.1
2014-Nov-14 10:33N 37°36' W 122°16'5 5.2
2014-Nov-14 09:31N 37°32' W 122°12'2 1.6
2014-Nov-14 08:33N 37°33' W 122°12'0 0.1
2014-Nov-14 07:33N 37°33' W 122°12'4 4.0
2014-Nov-14 06:33N 37°35' W 122°16'9 8.8
2014-Nov-14 05:33N 37°43' W 122°21'7 7.3
2014-Nov-14 04:33N 37°49' W 122°26'6 5.9
2014-Nov-14 03:33N 37°45' W 122°21'8 8.4
2014-Nov-14 02:33N 37°37' W 122°17'7 6.6
2014-Nov-14 01:32N 37°31' W 122°12'3 2.6
2014-Nov-14 00:33N 37°34' W 122°13'6 5.9
2014-Nov-13 23:33N 37°38' W 122°18'9 9.3
2014-Nov-13 22:33N 37°47' W 122°22'1 1.5
2014-Nov-13 21:33N 37°48' W 122°23'6 6.3
2014-Nov-13 20:33N 37°42' W 122°20'7 6.5
2014-Nov-13 19:33N 37°36' W 122°17'6 6.0
2014-Nov-13 18:33N 37°32' W 122°12'2 2.3
2014-Nov-13 17:33N 37°34' W 122°13'8 8.4
2014-Nov-13 16:33N 37°41' W 122°19'8 8.4
2014-Nov-13 15:33N 37°48' W 122°23'1 1.2
2014-Nov-13 14:33N 37°47' W 122°23'8 7.6
2014-Nov-13 13:33N 37°40' W 122°19'7 6.6
2014-Nov-13 12:33N 37°35' W 122°14'3 2.6
2014-Nov-13 11:33N 37°33' W 122°12'2 1.8
2014-Nov-13 10:33N 37°34' W 122°13'9 8.7
2014-Nov-13 09:33N 37°41' W 122°20'9 9.1
2014-Nov-13 08:33N 37°49' W 122°26'4 4.1
2014-Nov-13 07:33N 37°46' W 122°22'7 6.8
2014-Nov-13 06:33N 37°40' W 122°19'7 7.3
2014-Nov-13 05:33N 37°34' W 122°13'4 3.8
2014-Nov-13 04:33N 37°30' W 122°13'0 0.0
2014-Nov-13 03:33N 37°30' W 122°13'0 0.0
2014-Nov-13 02:33N 37°30' W 122°13'1 0.9
2014-Nov-13 01:31N 37°31' W 122°12'1 0.7
2014-Nov-13 00:09N 37°30' W 122°13'0 0.0
2014-Nov-12 23:13N 37°30' W 122°13'0 0.0
2014-Nov-12 22:32N 37°30' W 122°13'3 3.3
2014-Nov-12 21:33N 37°34' W 122°12'9 8.5
2014-Nov-12 20:33N 37°40' W 122°19'9 9.5
2014-Nov-12 19:33N 37°49' W 122°24'2 2.4
2014-Nov-12 18:33N 37°47' W 122°22'7 7.3
2014-Nov-12 17:33N 37°40' W 122°19'8 7.5
2014-Nov-12 16:33N 37°34' W 122°13'4 3.7
2014-Nov-12 15:33N 37°30' W 122°13'0 0.0
2014-Nov-12 14:33N 37°30' W 122°13'0 0.0
2014-Nov-12 13:32N 37°30' W 122°13'0 0.0
2014-Nov-12 12:32N 37°30' W 122°13'  

Dump ship's entire track history